Weather at Leonardo da Vinci–Fiumicino Airport

Public forecast

Using degrees Celsius for public forecast. Weather courtesy of forecast.io.

Current aviation weather report (METAR) for Leonardo da Vinci–Fiumicino Airport

Retrieved 2021/03/04 17:20 UTC (7 minutes ago):

LIRF 041720Z 22006KT CAVOK 12/06 Q1022 NOSIG

Aviation forecast (TAF) for Leonardo da Vinci–Fiumicino Airport

Forecast is more than 6 hours old.

Retrieved 2021/03/04 06:00 UTC (11 hours ago):

TAF LIRF 040500Z 0406/0512 VRB05KT 6000 NSC TEMPO 0406/0408 1500 BCFG BECMG 0408/0410 24010KT BECMG 0418/0420 VRB05KT TEMPO 0500/0506 4000 BR TEMPO 0508/0512 RA BECMG 0510/0512 16010KT